Portada
METAR-TAF:

METAR-TAF

Aeropuertos :

Aeropuerto Internacional de Juneau

Juneau, Alaska, Estados Unidos

latitud: 58-21-17N, longitud: 134-34-34W, altitud: 6 m

Observación

El informe se hizo hace 28 minutos, a las 05:53 UTC
Viento 4 kt del suroeste
Temperatura 18°C
Humedad 64%
Presión 1023 hPa
Visibilidad: 16.1 km
Escasas nubes a una altura de 35000 ft

METAR: PAJN 220553Z 22004KT 10SM FEW350 18/11 A3022 RMK AO2 SLP233 T01780106 10250 20178 53008

Hora: 22:21 (06:21 UTC)

Pronóstico

El informe se hizo hace 40 minutos, a las 05:41 UTC
Pronóstico válido del 22 a las 06 UTC al 23 a las 06 UTC
Viento 2 kt con dirección variable
Visibilidad: 10 km
Cielo despejado
A partir de las 22 a las 1700 UTC
Viento 8 kt del oeste-suroeste
Visibilidad: 10 km
Cielo despejado
A partir de las 23 a las 0300 UTC
Viento 4 kt con dirección variable
Visibilidad: 10 km
Cielo despejado

TAF: PAJN 220541Z 2206/2306 VRB02KT P6SM SKC FM221700 25008KT P6SM SKC FM230300 VRB04KT P6SM SKC

Observaciones y pronósticos meteorológicos de más de 4000 aeropuertos (mensajes METAR y TAF).

Los puntos amarillos y rojos representan las estaciones disponibles.

Ponga el ratón en el punto deseado para ver el nombre de la estación.

Haga clic para ver las observaciones y los pronósticos meteorológicos.

Para cambiar el mapa : haga clic en los botones verdes con una cruz de color negro para hacer un zoom, en el botón verde con un guión para alejar o en las flechas verdes para mapas adyacentes.


METAR-TAF: